Time;durP1;ratioP1;P1;durP2;ratioP2;P2;SDS_P1;SDS_P2;PMS_P1;PMS_P2;Temp;Humidity;BMP_temperature;BMP_pressure;BME280_temperature;BME280_humidity;BME280_pressure;Samples;Min_cycle;Max_cycle;Signal;HPM_P1;HPM_P2
2021/07/12 16:03:44;;;;;;;13.80;3.00;;;26.70;96.60;;;;;;5121083;27;20428;-58
2021/07/12 16:06:11;;;;;;;19.50;4.55;;;27.10;94.70;;;;;;5120592;28;20031;-53
2021/07/12 16:08:38;;;;;;;9.85;2.60;;;27.00;95.80;;;;;;5109063;28;20035;-54
2021/07/12 16:11:06;;;;;;;7.35;2.10;;;26.90;96.10;;;;;;5100507;28;20201;-51
2021/07/12 16:13:37;;;;;;;4.18;1.10;;;26.70;96.50;;;;;;5099408;28;20039;-55
2021/07/12 16:16:07;;;;;;;8.40;1.20;;;26.40;96.60;;;;;;5100567;28;20221;-54
2021/07/12 16:18:34;;;;;;;3.90;0.93;;;26.20;97.10;;;;;;5100912;28;20324;-54
2021/07/12 16:21:01;;;;;;;7.10;0.70;;;26.20;97.30;;;;;;5100994;28;20028;-49
2021/07/12 16:23:28;;;;;;;3.13;1.42;;;26.10;97.40;;;;;;5100545;28;20208;-51
2021/07/12 16:25:54;;;;;;;3.15;1.05;;;26.00;97.50;;;;;;5100513;28;20024;-56
2021/07/12 16:28:21;;;;;;;6.93;1.70;;;25.90;97.60;;;;;;5100807;28;20119;-52
2021/07/12 16:30:51;;;;;;;9.70;2.55;;;25.80;97.80;;;;;;5100624;28;20023;-54
2021/07/12 16:33:21;;;;;;;8.38;2.67;;;25.90;98.00;;;;;;5100616;28;20031;-57
2021/07/12 16:35:48;;;;;;;11.30;3.38;;;25.90;98.00;;;;;;5100628;28;20013;-51
2021/07/12 16:38:19;;;;;;;8.60;2.72;;;26.00;97.70;;;;;;5100236;28;20013;-49
2021/07/12 16:40:50;;;;;;;14.32;3.45;;;25.90;97.70;;;;;;5100299;28;20435;-48
2021/07/12 16:43:19;;;;;;;12.13;4.43;;;26.00;97.80;;;;;;5100098;28;20356;-49
2021/07/12 17:37:42;;;;;;;9.63;6.47;;;26.30;98.10;;;;;;5064443;28;20726;-53
2021/07/12 17:40:11;;;;;;;12.80;8.98;;;27.10;97.20;;;;;;5068664;28;20207;-52
2021/07/12 17:42:39;;;;;;;11.43;8.43;;;27.10;97.00;;;;;;5119740;28;20023;-58
2021/07/12 17:45:07;;;;;;;8.90;7.22;;;27.10;96.60;;;;;;5085359;28;20012;-54
2021/07/12 17:47:34;;;;;;;9.57;8.20;;;27.20;97.00;;;;;;5072201;28;20057;-54
2021/07/12 17:50:03;;;;;;;12.02;8.85;;;27.20;96.60;;;;;;5063724;28;20018;-56
2021/07/12 17:52:31;;;;;;;6.72;5.32;;;27.30;96.90;;;;;;5068992;28;20028;-58
2021/07/12 17:54:58;;;;;;;8.00;5.03;;;27.30;96.80;;;;;;5073057;28;20212;-56
2021/07/12 17:57:25;;;;;;;6.43;3.17;;;27.30;96.70;;;;;;5079733;28;20018;-58
2021/07/12 17:59:52;;;;;;;4.70;2.72;;;27.40;96.60;;;;;;5048908;28;20370;-56
2021/07/12 18:02:19;;;;;;;6.05;2.78;;;27.40;96.40;;;;;;5018033;28;20322;-65
2021/07/12 18:04:48;;;;;;;11.90;7.43;;;27.40;96.40;;;;;;5017420;28;20026;-54
2021/07/12 18:07:18;;;;;;;12.18;9.00;;;27.40;96.10;;;;;;5017250;28;20026;-61
2021/07/12 18:09:48;;;;;;;8.18;4.70;;;27.50;96.30;;;;;;5017169;28;20030;-56
2021/07/12 18:12:16;;;;;;;7.20;2.55;;;27.50;96.90;;;;;;5017436;28;20030;-62
2021/07/12 18:14:43;;;;;;;6.38;2.45;;;27.50;96.50;;;;;;5017193;28;20029;-55
2021/07/12 18:17:10;;;;;;;4.60;1.50;;;27.50;96.50;;;;;;5017840;28;20021;-55
2021/07/12 18:19:37;;;;;;;3.55;2.10;;;27.60;96.60;;;;;;5016190;28;20026;-57
2021/07/12 18:22:04;;;;;;;6.40;4.80;;;27.60;96.40;;;;;;5017118;28;20049;-55
2021/07/12 18:24:33;;;;;;;5.28;4.00;;;27.70;96.30;;;;;;5017063;28;20097;-58
2021/07/12 18:27:00;;;;;;;5.15;2.47;;;27.70;96.10;;;;;;5017395;28;20348;-58
2021/07/12 18:29:26;;;;;;;3.65;2.25;;;27.80;96.20;;;;;;5017131;28;20026;-56
2021/07/12 18:31:53;;;;;;;4.63;1.60;;;27.80;95.80;;;;;;5017268;28;20083;-55
2021/07/12 18:34:20;;;;;;;3.90;1.70;;;27.80;95.20;;;;;;5016831;28;20022;-57
2021/07/12 18:36:50;;;;;;;3.17;1.33;;;27.80;95.30;;;;;;5010235;28;20072;-57
2021/07/12 18:39:16;;;;;;;1.98;1.23;;;27.90;95.40;;;;;;5003726;28;20097;-57
2021/07/12 18:41:44;;;;;;;4.68;1.52;;;27.90;95.60;;;;;;5004205;28;20018;-57
2021/07/12 18:44:11;;;;;;;3.88;1.00;;;28.00;95.10;;;;;;5003826;28;20334;-60
2021/07/12 18:46:38;;;;;;;6.57;1.20;;;28.00;94.60;;;;;;5003909;28;20049;-52
2021/07/12 18:49:04;;;;;;;3.22;1.60;;;28.00;94.50;;;;;;5008164;28;20084;-47
2021/07/12 18:51:31;;;;;;;9.13;1.90;;;28.00;94.20;;;;;;5003998;28;20034;-52
2021/07/12 18:53:57;;;;;;;4.57;1.77;;;28.00;94.50;;;;;;5003519;28;20042;-51
2021/07/12 18:56:24;;;;;;;4.03;1.55;;;27.90;94.40;;;;;;5003469;28;20076;-54
2021/07/12 18:58:51;;;;;;;4.82;1.70;;;28.00;94.70;;;;;;5003489;28;20019;-51
2021/07/12 19:01:17;;;;;;;3.60;1.30;;;28.00;94.60;;;;;;5002405;28;20054;-52
2021/07/12 19:03:44;;;;;;;6.53;2.67;;;28.00;94.80;;;;;;5003182;28;20026;-54
2021/07/12 19:06:12;;;;;;;3.95;2.70;;;28.00;93.90;;;;;;5003297;28;20033;-49
2021/07/12 19:08:39;;;;;;;5.65;2.00;;;28.00;93.80;;;;;;5003228;28;20018;-49
2021/07/12 19:11:08;;;;;;;4.65;1.60;;;27.90;93.80;;;;;;5003552;28;20054;-53
2021/07/12 19:13:35;;;;;;;4.38;1.30;;;27.90;93.00;;;;;;5002238;28;20022;-55
2021/07/12 19:16:02;;;;;;;7.07;1.52;;;27.80;92.50;;;;;;5003147;28;20031;-57
2021/07/12 19:18:28;;;;;;;3.72;1.30;;;27.90;93.00;;;;;;5003308;28;20021;-56
